createdAt,value
2023-05-10T00:01:36.776Z,60.72
2023-05-10T00:04:04.427Z,60.83
2023-05-10T00:06:32.094Z,61.09
2023-05-10T00:08:59.016Z,62.33
2023-05-10T00:11:25.773Z,62.10
2023-05-10T00:13:52.701Z,61.20
2023-05-10T00:16:19.510Z,61.40
2023-05-10T00:18:46.446Z,63.14
2023-05-10T00:21:13.194Z,64.50
2023-05-10T00:23:40.193Z,63.25
2023-05-10T00:26:06.980Z,62.76
2023-05-10T00:28:33.802Z,62.53
2023-05-10T00:31:00.567Z,62.45
2023-05-10T00:33:27.566Z,63.53
2023-05-10T00:35:54.392Z,64.03
2023-05-10T00:38:21.804Z,65.02
2023-05-10T00:40:48.597Z,66.08
2023-05-10T00:43:21.584Z,65.87
2023-05-10T00:45:48.676Z,64.59
2023-05-10T00:48:15.588Z,64.11
2023-05-10T00:50:42.595Z,64.20
2023-05-10T00:53:09.619Z,64.80
2023-05-10T00:55:36.988Z,65.39
2023-05-10T00:58:04.809Z,65.78
2023-05-10T01:00:33.315Z,66.16
2023-05-10T01:03:01.063Z,66.11
2023-05-10T01:05:28.180Z,66.17
2023-05-10T01:07:55.657Z,65.53
2023-05-10T01:10:22.718Z,67.00
2023-05-10T01:12:49.657Z,68.17
2023-05-10T01:15:16.535Z,68.05
2023-05-10T01:17:45.846Z,67.63
2023-05-10T01:20:13.128Z,67.94
2023-05-10T01:23:08.540Z,67.31
2023-05-10T01:25:52.801Z,66.23
2023-05-10T01:28:45.124Z,65.04
2023-05-10T01:31:30.839Z,64.83
2023-05-10T01:34:13.610Z,63.72
2023-05-10T01:36:51.279Z,62.21
2023-05-10T01:39:23.083Z,76.76
2023-05-10T01:42:00.147Z,73.03
2023-05-10T01:44:30.319Z,68.62
2023-05-10T01:47:10.168Z,66.75
2023-05-10T01:49:57.263Z,65.82
2023-05-10T01:52:27.506Z,71.99
2023-05-10T01:55:01.845Z,85.20
2023-05-10T01:57:35.618Z,76.92
2023-05-10T02:00:06.791Z,90.88
2023-05-10T02:02:45.184Z,95.89
2023-05-10T02:05:13.804Z,91.44
2023-05-10T02:07:41.051Z,79.75
2023-05-10T02:10:08.963Z,76.27
2023-05-10T02:12:36.871Z,74.85
2023-05-10T02:15:05.993Z,73.79
2023-05-10T02:17:33.325Z,74.01
2023-05-10T02:20:00.512Z,72.98
2023-05-10T02:22:27.955Z,70.36
2023-05-10T02:24:56.240Z,69.87
2023-05-10T02:27:23.799Z,70.96
2023-05-10T02:29:50.708Z,70.88
2023-05-10T02:32:18.534Z,70.23
2023-05-10T02:34:46.030Z,69.22
2023-05-10T02:37:15.135Z,68.17
2023-05-10T02:39:44.476Z,68.02
2023-05-10T02:42:17.668Z,67.76
2023-05-10T02:44:46.318Z,67.15
2023-05-10T02:47:15.637Z,65.80
2023-05-10T02:49:43.288Z,64.24
2023-05-10T02:52:10.281Z,62.87
2023-05-10T02:54:44.454Z,62.00
2023-05-10T02:57:15.240Z,60.89
2023-05-10T02:59:43.367Z,59.59
2023-05-10T03:02:10.202Z,58.01
2023-05-10T03:04:37.390Z,57.07
2023-05-10T03:07:04.504Z,56.84
2023-05-10T03:09:32.510Z,55.99
2023-05-10T03:12:16.117Z,55.97
2023-05-10T03:14:49.094Z,55.24
2023-05-10T03:17:20.237Z,55.05
2023-05-10T03:19:54.831Z,70.77
2023-05-10T03:22:29.061Z,66.32
2023-05-10T03:24:58.073Z,66.31
2023-05-10T03:27:26.964Z,65.65
2023-05-10T03:29:55.129Z,64.83
2023-05-10T03:32:22.582Z,62.71
2023-05-10T03:34:49.539Z,62.22
2023-05-10T03:37:16.578Z,62.43
2023-05-10T03:39:43.421Z,61.34
2023-05-10T03:42:12.312Z,60.29
2023-05-10T03:44:39.532Z,59.96
2023-05-10T03:47:06.725Z,58.81
2023-05-10T03:49:33.729Z,57.80
2023-05-10T03:52:00.513Z,56.82
2023-05-10T03:54:27.648Z,55.97
2023-05-10T03:56:54.459Z,54.30
2023-05-10T03:59:21.640Z,52.49
2023-05-10T04:01:48.877Z,52.47
2023-05-10T04:04:16.094Z,51.96
2023-05-10T04:06:43.129Z,50.96
2023-05-10T04:09:10.016Z,50.49
2023-05-10T04:11:36.795Z,50.07
2023-05-10T04:14:03.613Z,49.25
2023-05-10T04:16:30.473Z,48.36
2023-05-10T04:18:57.860Z,47.28
2023-05-10T04:21:25.008Z,45.84
2023-05-10T04:23:51.888Z,44.43
2023-05-10T04:26:18.596Z,43.30
2023-05-10T04:28:45.715Z,41.90
2023-05-10T04:31:12.691Z,41.03
2023-05-10T04:33:39.598Z,40.22
2023-05-10T04:36:06.496Z,39.92
2023-05-10T04:38:33.433Z,39.01
2023-05-10T04:41:09.381Z,38.78
2023-05-10T04:43:36.504Z,38.63
2023-05-10T04:46:03.855Z,38.27
2023-05-10T04:48:30.932Z,38.03
2023-05-10T04:50:57.706Z,38.03
2023-05-10T04:53:24.360Z,37.43
2023-05-10T04:55:51.261Z,36.48
2023-05-10T04:58:18.101Z,35.98
2023-05-10T05:00:44.817Z,34.95
2023-05-10T05:03:11.725Z,34.58
2023-05-10T05:05:38.766Z,34.16
2023-05-10T05:08:05.696Z,33.99
2023-05-10T05:10:32.473Z,33.40
2023-05-10T05:12:59.346Z,33.28
2023-05-10T05:15:26.861Z,32.38
2023-05-10T05:17:53.962Z,32.27
2023-05-10T05:20:20.852Z,31.31
2023-05-10T05:22:47.816Z,30.26
2023-05-10T05:25:15.580Z,30.30
2023-05-10T05:27:42.673Z,30.15
2023-05-10T05:30:10.149Z,30.38
2023-05-10T05:32:37.113Z,29.84
2023-05-10T05:35:04.793Z,29.88
2023-05-10T05:37:31.758Z,35.97
2023-05-10T05:39:58.803Z,38.17
2023-05-10T05:42:26.453Z,39.49
2023-05-10T05:45:58.498Z,39.37
2023-05-10T05:48:25.577Z,39.35
2023-05-10T05:50:56.957Z,38.26
2023-05-10T05:53:23.883Z,37.48
2023-05-10T05:55:54.689Z,37.72
2023-05-10T05:58:22.617Z,37.91
2023-05-10T06:00:49.576Z,37.67
2023-05-10T06:03:16.655Z,37.91
2023-05-10T06:05:44.038Z,37.97
2023-05-10T06:08:10.791Z,37.41
2023-05-10T06:10:39.451Z,36.96
2023-05-10T06:13:06.652Z,35.65
2023-05-10T06:15:33.731Z,34.98
2023-05-10T06:18:00.904Z,35.53
2023-05-10T06:20:27.840Z,35.19
2023-05-10T06:22:54.934Z,35.42
2023-05-10T06:25:21.643Z,34.83
2023-05-10T06:27:52.725Z,34.03
2023-05-10T06:30:23.417Z,34.12
2023-05-10T06:32:50.430Z,33.46
2023-05-10T06:35:17.582Z,33.98
2023-05-10T06:37:44.725Z,34.69
2023-05-10T06:40:12.349Z,34.31
2023-05-10T06:42:39.657Z,34.81
2023-05-10T06:45:07.462Z,34.83
2023-05-10T06:47:36.549Z,34.18
2023-05-10T06:50:06.401Z,34.54
2023-05-10T06:52:33.748Z,34.30
2023-05-10T06:55:00.815Z,33.93
2023-05-10T06:57:31.808Z,33.97
2023-05-10T06:59:59.447Z,33.45
2023-05-10T07:02:26.904Z,32.34
2023-05-10T07:04:54.600Z,32.78
2023-05-10T07:07:21.523Z,31.95
2023-05-10T07:09:49.388Z,32.45
2023-05-10T07:12:16.267Z,32.43
2023-05-10T07:14:43.199Z,33.62
2023-05-10T07:17:10.387Z,33.97
2023-05-10T07:19:37.209Z,33.49
2023-05-10T07:22:04.871Z,32.33
2023-05-10T07:24:33.597Z,30.85
2023-05-10T07:27:00.429Z,32.10
2023-05-10T07:29:27.203Z,33.04
2023-05-10T07:31:55.347Z,32.46
2023-05-10T07:34:23.251Z,32.16
2023-05-10T07:36:50.021Z,32.24
2023-05-10T07:39:24.822Z,32.49
2023-05-10T07:41:55.264Z,32.28
2023-05-10T07:44:22.252Z,31.83
2023-05-10T07:46:49.983Z,31.69
2023-05-10T07:49:16.804Z,31.71
2023-05-10T07:51:43.788Z,31.57
2023-05-10T07:54:10.710Z,31.53
2023-05-10T07:56:37.510Z,31.20
2023-05-10T07:59:05.589Z,30.74
2023-05-10T08:01:33.557Z,31.29
2023-05-10T08:04:00.565Z,33.26
2023-05-10T08:06:28.517Z,31.13
2023-05-10T08:08:55.965Z,31.18
2023-05-10T08:11:22.815Z,32.44
2023-05-10T08:13:50.420Z,31.61
2023-05-10T08:16:17.681Z,31.44
2023-05-10T08:18:45.549Z,31.04
2023-05-10T08:21:12.535Z,31.19
2023-05-10T08:23:39.301Z,31.14
2023-05-10T08:26:06.090Z,31.10
2023-05-10T08:28:33.103Z,30.81
2023-05-10T08:30:59.867Z,31.02
2023-05-10T08:33:26.748Z,30.62
2023-05-10T08:35:53.477Z,30.44
2023-05-10T08:38:20.226Z,29.68
2023-05-10T08:40:47.171Z,29.64
2023-05-10T08:43:16.919Z,29.65
2023-05-10T08:45:45.767Z,29.71
2023-05-10T08:48:12.899Z,29.97
2023-05-10T08:50:40.724Z,29.00
2023-05-10T08:53:13.472Z,29.51
2023-05-10T08:55:43.089Z,29.33
2023-05-10T08:58:10.404Z,28.93
2023-05-10T09:00:38.218Z,28.65
2023-05-10T09:03:06.000Z,28.01
2023-05-10T09:05:33.111Z,28.23
2023-05-10T09:08:02.491Z,28.29
2023-05-10T09:10:29.837Z,28.34
2023-05-10T09:12:58.605Z,28.55
2023-05-10T09:15:26.442Z,29.06
2023-05-10T09:17:53.583Z,28.54
2023-05-10T09:20:21.572Z,28.67
2023-05-10T09:22:49.111Z,28.94
2023-05-10T09:25:16.731Z,28.83
2023-05-10T09:27:47.773Z,29.76
2023-05-10T09:30:28.146Z,30.04
2023-05-10T09:32:55.653Z,30.06
2023-05-10T09:35:25.914Z,30.58
2023-05-10T09:37:56.460Z,30.77
2023-05-10T09:40:28.040Z,31.10
2023-05-10T09:43:02.840Z,31.32
2023-05-10T09:45:39.109Z,31.28
2023-05-10T09:48:11.151Z,31.60
2023-05-10T09:50:39.237Z,32.18
2023-05-10T09:53:05.984Z,31.39
2023-05-10T09:55:40.164Z,30.33
2023-05-10T09:58:15.724Z,31.44
2023-05-10T10:00:48.122Z,31.66
2023-05-10T10:03:16.608Z,30.89
2023-05-10T10:05:44.180Z,30.35
2023-05-10T10:08:12.250Z,30.31
2023-05-10T10:10:40.757Z,30.71
2023-05-10T10:13:07.769Z,30.36
2023-05-10T10:15:34.902Z,30.81
2023-05-10T10:18:01.830Z,30.89
2023-05-10T10:20:28.940Z,30.53
2023-05-10T10:22:55.762Z,30.85
2023-05-10T10:25:22.841Z,31.40
2023-05-10T10:27:52.715Z,31.23
2023-05-10T10:30:20.244Z,31.33
2023-05-10T10:33:27.874Z,30.87
2023-05-10T10:35:56.294Z,27.63
2023-05-10T10:38:23.265Z,26.56
2023-05-10T10:41:01.944Z,26.34
2023-05-10T10:43:29.107Z,26.41
2023-05-10T10:46:17.802Z,28.42
2023-05-10T10:48:48.866Z,26.98
2023-05-10T10:51:15.687Z,29.23
2023-05-10T10:53:42.953Z,29.88
2023-05-10T10:56:11.218Z,30.15
2023-05-10T10:58:38.585Z,28.07
2023-05-10T11:01:18.066Z,27.72
2023-05-10T11:04:03.139Z,27.27
2023-05-10T11:06:33.826Z,29.97
2023-05-10T11:09:18.604Z,30.26
2023-05-10T11:11:52.691Z,29.91
2023-05-10T11:14:23.012Z,29.64
2023-05-10T11:16:50.158Z,29.58
2023-05-10T11:19:18.149Z,29.89
2023-05-10T11:21:52.231Z,27.98
2023-05-10T11:24:22.183Z,27.80
2023-05-10T11:26:52.509Z,26.50
2023-05-10T11:29:20.477Z,24.97
2023-05-10T11:31:47.970Z,24.28
2023-05-10T11:34:24.323Z,24.19
2023-05-10T11:36:52.389Z,26.67
2023-05-10T11:39:19.111Z,27.55
2023-05-10T11:41:48.616Z,28.33
2023-05-10T11:44:15.540Z,28.49
2023-05-10T11:46:42.346Z,28.97
2023-05-10T11:49:09.167Z,29.45
2023-05-10T11:51:36.806Z,29.23
2023-05-10T11:54:08.928Z,29.37
2023-05-10T11:56:40.199Z,29.28
2023-05-10T11:59:07.102Z,30.19
2023-05-10T12:01:34.006Z,30.16
2023-05-10T12:04:01.252Z,29.97
2023-05-10T12:06:31.385Z,28.00
2023-05-10T12:08:58.329Z,27.67
2023-05-10T12:11:26.258Z,26.98
2023-05-10T12:13:53.530Z,26.48
2023-05-10T12:16:23.153Z,26.88
2023-05-10T12:18:53.801Z,28.83
2023-05-10T12:21:21.148Z,27.17
2023-05-10T12:23:50.429Z,26.70
2023-05-10T12:26:17.436Z,25.74
2023-05-10T12:28:44.705Z,27.82
2023-05-10T12:31:11.536Z,28.49
2023-05-10T12:33:43.056Z,28.65
2023-05-10T12:36:14.098Z,29.05
2023-05-10T12:38:48.146Z,29.43
2023-05-10T12:41:18.745Z,28.77
2023-05-10T12:43:48.459Z,29.82
2023-05-10T12:46:17.042Z,28.55
2023-05-10T12:48:44.508Z,27.56
2023-05-10T12:51:13.483Z,27.18
2023-05-10T12:53:41.760Z,25.85
2023-05-10T12:56:11.189Z,25.94
2023-05-10T12:58:38.772Z,24.97
2023-05-10T13:01:05.881Z,25.40
2023-05-10T13:03:33.095Z,25.52
2023-05-10T13:06:00.284Z,25.21
2023-05-10T13:08:28.152Z,25.16
2023-05-10T13:10:55.355Z,25.81
2023-05-10T13:13:23.022Z,25.55
2023-05-10T13:15:50.063Z,25.31
2023-05-10T13:18:16.862Z,24.94
2023-05-10T13:20:44.720Z,24.94
2023-05-10T13:23:11.490Z,24.61
2023-05-10T13:25:38.383Z,24.16
2023-05-10T13:28:05.307Z,24.40
2023-05-10T13:30:32.338Z,24.60
2023-05-10T13:32:59.184Z,24.31
2023-05-10T13:35:26.046Z,23.80
2023-05-10T13:37:53.863Z,23.65
2023-05-10T13:40:20.833Z,24.02
2023-05-10T13:42:47.662Z,23.59
2023-05-10T13:45:14.743Z,25.51
2023-05-10T13:47:42.021Z,27.45
2023-05-10T13:50:08.981Z,26.97
2023-05-10T13:52:35.987Z,26.53
2023-05-10T13:55:03.274Z,27.06
2023-05-10T13:57:30.861Z,28.29
2023-05-10T13:59:58.022Z,28.82
2023-05-10T14:02:25.092Z,29.42
2023-05-10T14:04:52.194Z,29.51
2023-05-10T14:07:19.583Z,29.02
2023-05-10T14:09:46.493Z,28.62
2023-05-10T14:12:14.958Z,28.45
2023-05-10T14:14:41.740Z,30.13
2023-05-10T14:17:10.751Z,29.43
2023-05-10T14:19:40.147Z,29.48
2023-05-10T14:22:07.288Z,29.23
2023-05-10T14:24:34.280Z,30.18
2023-05-10T14:27:01.084Z,29.74
2023-05-10T14:29:27.902Z,29.12
2023-05-10T14:31:54.729Z,29.91
2023-05-10T14:34:21.618Z,30.64
2023-05-10T14:36:49.429Z,29.14
2023-05-10T14:39:16.935Z,29.98
2023-05-10T14:41:44.994Z,30.32
2023-05-10T14:44:11.956Z,29.69
2023-05-10T14:46:39.908Z,31.24
2023-05-10T14:49:06.869Z,31.54
2023-05-10T14:51:33.732Z,31.44
2023-05-10T14:54:01.041Z,31.09
2023-05-10T14:56:28.394Z,30.63
2023-05-10T14:58:55.946Z,30.45
2023-05-10T15:01:23.543Z,29.89
2023-05-10T15:03:51.248Z,30.04
2023-05-10T15:06:27.390Z,29.27
2023-05-10T15:08:54.197Z,28.92
2023-05-10T15:11:21.020Z,29.33
2023-05-10T15:13:47.985Z,29.12
2023-05-10T15:16:14.995Z,29.23
2023-05-10T15:18:41.978Z,28.96
2023-05-10T15:21:09.383Z,30.80
2023-05-10T15:23:36.452Z,30.57
2023-05-10T15:26:03.203Z,30.83
2023-05-10T15:28:31.476Z,29.84
2023-05-10T15:31:00.811Z,28.90
2023-05-10T15:33:28.017Z,28.10
2023-05-10T15:35:54.822Z,27.74
2023-05-10T15:38:21.981Z,26.75
2023-05-10T15:40:48.705Z,27.28
2023-05-10T15:43:15.729Z,28.04
2023-05-10T15:45:42.819Z,27.99
2023-05-10T15:48:09.562Z,27.60
2023-05-10T15:50:36.384Z,28.47
2023-05-10T15:53:03.124Z,28.69
2023-05-10T15:55:30.067Z,30.06
2023-05-10T15:57:56.960Z,29.29
2023-05-10T16:00:23.807Z,29.60
2023-05-10T16:02:53.181Z,30.39
2023-05-10T16:05:20.287Z,29.03
2023-05-10T16:07:47.386Z,28.19
2023-05-10T16:10:14.321Z,28.27
2023-05-10T16:12:41.146Z,29.33
2023-05-10T16:15:08.539Z,28.38
2023-05-10T16:17:36.783Z,28.15
2023-05-10T16:20:04.942Z,28.36
2023-05-10T16:22:32.007Z,28.34
2023-05-10T16:24:58.739Z,28.31
2023-05-10T16:27:28.065Z,28.46
2023-05-10T16:29:54.864Z,27.80
2023-05-10T16:32:21.766Z,27.65
2023-05-10T16:34:49.598Z,27.79
2023-05-10T16:37:16.402Z,29.71
2023-05-10T16:39:43.319Z,31.01
2023-05-10T16:42:10.114Z,31.69
2023-05-10T16:44:37.106Z,31.52
2023-05-10T16:47:03.899Z,31.45
2023-05-10T16:49:31.094Z,31.50
2023-05-10T16:51:57.890Z,31.98
2023-05-10T16:54:25.236Z,33.15
2023-05-10T16:56:52.117Z,33.67
2023-05-10T16:59:18.932Z,34.52
2023-05-10T17:01:46.444Z,35.40
2023-05-10T17:04:13.835Z,36.36
2023-05-10T17:06:40.905Z,37.07
2023-05-10T17:09:07.772Z,36.37
2023-05-10T17:11:35.849Z,35.93
2023-05-10T17:14:02.913Z,35.32
2023-05-10T17:16:29.942Z,36.50
2023-05-10T17:18:56.938Z,37.70
2023-05-10T17:21:23.893Z,37.48
2023-05-10T17:23:50.810Z,36.41
2023-05-10T17:26:17.693Z,36.23
2023-05-10T17:28:44.454Z,36.08
2023-05-10T17:31:12.226Z,35.93
2023-05-10T17:33:39.088Z,36.24
2023-05-10T17:36:06.170Z,36.38
2023-05-10T17:38:33.482Z,37.55
2023-05-10T17:41:00.234Z,38.95
2023-05-10T17:43:27.063Z,37.83
2023-05-10T17:45:53.881Z,38.14
2023-05-10T17:48:21.388Z,37.93
2023-05-10T17:50:51.220Z,37.77
2023-05-10T17:53:19.089Z,37.65
2023-05-10T17:55:46.443Z,37.65
2023-05-10T17:58:13.375Z,37.60
2023-05-10T18:00:40.063Z,38.65
2023-05-10T18:03:06.835Z,39.99
2023-05-10T18:05:38.240Z,39.28
2023-05-10T18:08:05.326Z,38.24
2023-05-10T18:10:32.800Z,37.82
2023-05-10T18:13:01.833Z,37.49
2023-05-10T18:15:28.941Z,37.16
2023-05-10T18:17:56.330Z,37.12
2023-05-10T18:20:23.160Z,36.97
2023-05-10T18:22:50.118Z,36.94
2023-05-10T18:25:17.422Z,36.86
2023-05-10T18:27:44.527Z,36.84
2023-05-10T18:30:12.653Z,38.28
2023-05-10T18:32:40.338Z,39.68
2023-05-10T18:35:07.632Z,39.58
2023-05-10T18:37:34.996Z,39.24
2023-05-10T18:40:02.057Z,38.93
2023-05-10T18:42:28.987Z,40.54
2023-05-10T18:44:55.782Z,40.27
2023-05-10T18:47:22.676Z,39.99
2023-05-10T18:49:49.971Z,39.81
2023-05-10T18:52:16.790Z,39.64
2023-05-10T18:54:43.789Z,39.54
2023-05-10T18:57:11.837Z,39.31
2023-05-10T18:59:38.694Z,39.31
2023-05-10T19:02:05.568Z,39.39
2023-05-10T19:04:33.776Z,39.55
2023-05-10T19:07:01.578Z,40.15
2023-05-10T19:09:28.686Z,42.24
2023-05-10T19:11:56.155Z,42.78
2023-05-10T19:14:24.759Z,43.14
2023-05-10T19:16:53.734Z,43.26
2023-05-10T19:19:20.579Z,43.43
2023-05-10T19:21:47.784Z,43.62
2023-05-10T19:24:14.728Z,44.02
2023-05-10T19:26:41.631Z,44.29
2023-05-10T19:29:08.993Z,44.63
2023-05-10T19:31:36.189Z,44.93
2023-05-10T19:34:03.227Z,44.98
2023-05-10T19:36:30.789Z,44.92
2023-05-10T19:38:57.565Z,44.76
2023-05-10T19:41:24.360Z,44.70
2023-05-10T19:43:52.073Z,44.52
2023-05-10T19:46:20.251Z,44.40
2023-05-10T19:48:51.457Z,44.23
2023-05-10T19:51:18.227Z,44.17
2023-05-10T19:53:45.165Z,44.08
2023-05-10T19:56:12.517Z,44.26
2023-05-10T19:58:39.456Z,44.99
2023-05-10T20:01:07.112Z,44.84
2023-05-10T20:03:35.180Z,45.44
2023-05-10T20:06:02.011Z,46.31
2023-05-10T20:08:29.161Z,46.20
2023-05-10T20:10:58.331Z,46.08
2023-05-10T20:13:25.351Z,46.97
2023-05-10T20:15:56.346Z,46.66
2023-05-10T20:18:23.266Z,46.63
2023-05-10T20:20:57.811Z,46.60
2023-05-10T20:23:24.772Z,46.37
2023-05-10T20:25:51.636Z,47.80
2023-05-10T20:28:20.841Z,48.43
2023-05-10T20:30:47.722Z,48.88
2023-05-10T20:33:15.335Z,48.70
2023-05-10T20:35:42.244Z,48.39
2023-05-10T20:38:08.942Z,59.75
2023-05-10T20:40:36.448Z,56.99
2023-05-10T20:43:04.708Z,55.75
2023-05-10T20:45:32.077Z,55.28
2023-05-10T20:47:59.000Z,54.38
2023-05-10T20:50:25.896Z,57.42
2023-05-10T20:52:52.820Z,57.95
2023-05-10T20:55:19.994Z,55.85
2023-05-10T20:57:46.843Z,55.43
2023-05-10T21:00:14.190Z,56.10
2023-05-10T21:02:43.025Z,56.45
2023-05-10T21:05:09.779Z,56.50
2023-05-10T21:07:38.376Z,56.50
2023-05-10T21:10:07.339Z,64.08
2023-05-10T21:12:34.234Z,60.60
2023-05-10T21:15:01.048Z,60.53
2023-05-10T21:17:28.255Z,60.53
2023-05-10T21:19:55.215Z,62.01
2023-05-10T21:22:22.031Z,62.70
2023-05-10T21:24:48.723Z,65.45
2023-05-10T21:27:15.508Z,66.24
2023-05-10T21:29:42.289Z,66.72
2023-05-10T21:32:09.113Z,66.73
2023-05-10T21:34:36.214Z,67.47
2023-05-10T21:37:02.921Z,68.68
2023-05-10T21:39:29.739Z,70.24
2023-05-10T21:41:56.852Z,71.74
2023-05-10T21:44:23.693Z,72.81
2023-05-10T21:46:50.411Z,73.80
2023-05-10T21:49:17.239Z,73.78
2023-05-10T21:51:43.966Z,74.33
2023-05-10T21:54:10.773Z,73.57
2023-05-10T21:56:37.550Z,73.22
2023-05-10T21:59:04.774Z,74.21
2023-05-10T22:01:31.987Z,73.27
2023-05-10T22:03:58.837Z,73.26
2023-05-10T22:06:25.732Z,73.50
2023-05-10T22:08:52.717Z,74.03
2023-05-10T22:11:19.586Z,74.30
2023-05-10T22:13:46.293Z,76.64
2023-05-10T22:16:13.160Z,74.69
2023-05-10T22:18:40.316Z,74.91
2023-05-10T22:21:08.760Z,75.86
2023-05-10T22:23:36.648Z,77.79
2023-05-10T22:26:03.505Z,78.32
2023-05-10T22:28:30.423Z,78.37
2023-05-10T22:30:57.187Z,77.40
2023-05-10T22:33:24.085Z,77.97
2023-05-10T22:35:50.826Z,77.48
2023-05-10T22:38:17.793Z,77.33
2023-05-10T22:40:44.915Z,77.78
2023-05-10T22:43:11.728Z,77.60
2023-05-10T22:45:38.773Z,76.57
2023-05-10T22:48:05.776Z,76.26
2023-05-10T22:50:33.142Z,76.28
2023-05-10T22:52:59.869Z,76.53
2023-05-10T22:55:26.614Z,77.50
2023-05-10T22:57:53.638Z,76.90
2023-05-10T23:00:20.715Z,77.05
2023-05-10T23:02:47.798Z,79.33
2023-05-10T23:05:15.350Z,79.65
2023-05-10T23:07:43.251Z,78.46
2023-05-10T23:10:10.268Z,79.30
2023-05-10T23:12:38.041Z,80.87
2023-05-10T23:15:05.550Z,79.08
2023-05-10T23:17:32.534Z,78.32
2023-05-10T23:19:59.268Z,79.79
2023-05-10T23:22:26.259Z,79.84
2023-05-10T23:24:52.993Z,78.24
2023-05-10T23:27:19.750Z,78.09
2023-05-10T23:29:46.552Z,78.67
2023-05-10T23:32:13.470Z,77.41
2023-05-10T23:34:40.789Z,77.66
2023-05-10T23:37:07.659Z,78.31
2023-05-10T23:39:34.433Z,79.02
2023-05-10T23:42:01.281Z,79.73
2023-05-10T23:44:28.137Z,81.16
2023-05-10T23:46:55.003Z,81.64
2023-05-10T23:49:21.844Z,83.01
2023-05-10T23:51:48.641Z,84.68
2023-05-10T23:54:15.634Z,85.20
2023-05-10T23:56:42.637Z,83.92
2023-05-10T23:59:09.529Z,82.86
